sensor_id;sensor_type;location;lat;lon;timestamp;P1;durP1;ratioP1;P2;durP2;ratioP2
23590;SDS011;11973;52.098;7.582;2023-07-28T04:17:53;13.45;;;9.50;;
23590;SDS011;11973;52.098;7.582;2023-07-28T04:20:22;10.63;;;9.55;;
23590;SDS011;11973;52.098;7.582;2023-07-28T04:22:48;14.07;;;10.40;;
23590;SDS011;11973;52.098;7.582;2023-07-28T04:25:14;11.45;;;9.38;;
23590;SDS011;11973;52.098;7.582;2023-07-28T04:27:44;12.65;;;9.68;;
23590;SDS011;11973;52.098;7.582;2023-07-28T04:30:09;10.23;;;9.23;;
23590;SDS011;11973;52.098;7.582;2023-07-28T04:32:36;11.27;;;9.27;;
23590;SDS011;11973;52.098;7.582;2023-07-28T04:35:09;9.75;;;8.88;;
23590;SDS011;11973;52.098;7.582;2023-07-28T04:37:49;12.55;;;9.40;;
23590;SDS011;11973;52.098;7.582;2023-07-28T04:40:24;10.07;;;9.20;;
23590;SDS011;11973;52.098;7.582;2023-07-28T04:42:50;9.15;;;8.25;;
23590;SDS011;11973;52.098;7.582;2023-07-28T04:45:18;9.10;;;8.20;;
23590;SDS011;11973;52.098;7.582;2023-07-28T04:47:44;10.10;;;8.82;;
23590;SDS011;11973;52.098;7.582;2023-07-28T04:50:10;9.95;;;8.50;;
23590;SDS011;11973;52.098;7.582;2023-07-28T04:52:54;8.93;;;8.20;;
23590;SDS011;11973;52.098;7.582;2023-07-28T04:55:41;10.32;;;8.88;;
23590;SDS011;11973;52.098;7.582;2023-07-28T04:58:07;8.93;;;8.10;;
23590;SDS011;11973;52.098;7.582;2023-07-28T05:00:44;9.25;;;8.40;;
23590;SDS011;11973;52.098;7.582;2023-07-28T05:03:09;8.75;;;7.95;;
23590;SDS011;11973;52.098;7.582;2023-07-28T05:05:43;10.05;;;8.32;;
23590;SDS011;11973;52.098;7.582;2023-07-28T05:08:10;10.20;;;8.52;;
23590;SDS011;11973;52.098;7.582;2023-07-28T05:10:36;9.63;;;8.18;;
23590;SDS011;11973;52.098;7.582;2023-07-28T05:13:02;9.30;;;8.40;;
23590;SDS011;11973;52.098;7.582;2023-07-28T05:15:29;9.63;;;7.90;;
23590;SDS011;11973;52.098;7.582;2023-07-28T05:17:55;8.77;;;7.97;;
23590;SDS011;11973;52.098;7.582;2023-07-28T05:20:50;8.90;;;8.10;;
23590;SDS011;11973;52.098;7.582;2023-07-28T05:23:16;9.25;;;7.95;;
23590;SDS011;11973;52.098;7.582;2023-07-28T05:25:42;8.52;;;7.70;;
23590;SDS011;11973;52.098;7.582;2023-07-28T05:28:07;8.73;;;7.93;;
23590;SDS011;11973;52.098;7.582;2023-07-28T05:30:36;8.48;;;7.82;;
23590;SDS011;11973;52.098;7.582;2023-07-28T05:33:02;8.43;;;7.85;;
23590;SDS011;11973;52.098;7.582;2023-07-28T05:35:34;8.70;;;8.00;;
23590;SDS011;11973;52.098;7.582;2023-07-28T05:38:00;8.57;;;7.70;;
23590;SDS011;11973;52.098;7.582;2023-07-28T05:40:26;8.70;;;8.00;;
23590;SDS011;11973;52.098;7.582;2023-07-28T05:42:51;8.95;;;8.10;;
23590;SDS011;11973;52.098;7.582;2023-07-28T05:45:17;11.13;;;7.40;;
23590;SDS011;11973;52.098;7.582;2023-07-28T05:47:43;9.45;;;7.85;;
23590;SDS011;11973;52.098;7.582;2023-07-28T05:50:09;9.45;;;8.65;;
23590;SDS011;11973;52.098;7.582;2023-07-28T05:52:34;9.10;;;8.27;;
23590;SDS011;11973;52.098;7.582;2023-07-28T05:55:00;8.85;;;8.05;;
23590;SDS011;11973;52.098;7.582;2023-07-28T05:57:27;9.10;;;8.27;;
23590;SDS011;11973;52.098;7.582;2023-07-28T05:59:52;9.05;;;8.20;;
23590;SDS011;11973;52.098;7.582;2023-07-28T06:02:18;8.88;;;8.13;;
23590;SDS011;11973;52.098;7.582;2023-07-28T06:04:52;11.45;;;8.55;;
23590;SDS011;11973;52.098;7.582;2023-07-28T06:07:18;9.20;;;8.30;;
23590;SDS011;11973;52.098;7.582;2023-07-28T06:09:44;10.75;;;8.48;;
23590;SDS011;11973;52.098;7.582;2023-07-28T06:12:09;9.93;;;8.88;;
23590;SDS011;11973;52.098;7.582;2023-07-28T06:14:35;10.30;;;8.65;;
23590;SDS011;11973;52.098;7.582;2023-07-28T06:17:03;9.35;;;8.40;;
23590;SDS011;11973;52.098;7.582;2023-07-28T06:19:31;9.50;;;8.35;;
23590;SDS011;11973;52.098;7.582;2023-07-28T06:21:57;9.23;;;8.30;;
23590;SDS011;11973;52.098;7.582;2023-07-28T06:24:23;9.48;;;8.48;;
23590;SDS011;11973;52.098;7.582;2023-07-28T06:26:49;8.73;;;8.02;;
23590;SDS011;11973;52.098;7.582;2023-07-28T06:29:16;8.48;;;7.60;;
23590;SDS011;11973;52.098;7.582;2023-07-28T06:31:41;9.13;;;8.10;;
23590;SDS011;11973;52.098;7.582;2023-07-28T06:34:07;7.70;;;7.05;;
23590;SDS011;11973;52.098;7.582;2023-07-28T06:36:33;7.80;;;7.40;;
23590;SDS011;11973;52.098;7.582;2023-07-28T06:38:59;8.43;;;7.45;;
23590;SDS011;11973;52.098;7.582;2023-07-28T06:41:24;8.27;;;7.55;;
23590;SDS011;11973;52.098;7.582;2023-07-28T06:43:56;7.80;;;7.07;;
23590;SDS011;11973;52.098;7.582;2023-07-28T06:46:22;6.85;;;6.43;;
23590;SDS011;11973;52.098;7.582;2023-07-28T06:48:49;7.13;;;6.63;;
23590;SDS011;11973;52.098;7.582;2023-07-28T06:51:15;7.32;;;6.93;;
23590;SDS011;11973;52.098;7.582;2023-07-28T06:53:41;7.32;;;6.90;;
23590;SDS011;11973;52.098;7.582;2023-07-28T06:56:06;7.60;;;7.10;;
23590;SDS011;11973;52.098;7.582;2023-07-28T06:58:32;7.75;;;7.20;;
23590;SDS011;11973;52.098;7.582;2023-07-28T07:00:58;8.23;;;7.40;;
23590;SDS011;11973;52.098;7.582;2023-07-28T07:03:23;7.40;;;7.00;;
23590;SDS011;11973;52.098;7.582;2023-07-28T07:05:49;7.43;;;7.03;;
23590;SDS011;11973;52.098;7.582;2023-07-28T07:08:15;7.57;;;7.18;;
23590;SDS011;11973;52.098;7.582;2023-07-28T07:10:46;7.57;;;7.05;;
23590;SDS011;11973;52.098;7.582;2023-07-28T07:13:16;7.50;;;7.07;;
23590;SDS011;11973;52.098;7.582;2023-07-28T07:15:41;7.15;;;6.65;;
23590;SDS011;11973;52.098;7.582;2023-07-28T07:18:07;6.70;;;6.35;;
23590;SDS011;11973;52.098;7.582;2023-07-28T07:20:37;7.72;;;7.22;;
23590;SDS011;11973;52.098;7.582;2023-07-28T07:23:03;7.28;;;6.88;;
23590;SDS011;11973;52.098;7.582;2023-07-28T07:25:30;7.50;;;6.97;;
23590;SDS011;11973;52.098;7.582;2023-07-28T07:27:55;7.22;;;6.82;;
23590;SDS011;11973;52.098;7.582;2023-07-28T07:30:21;7.88;;;7.28;;
23590;SDS011;11973;52.098;7.582;2023-07-28T07:32:47;7.95;;;7.45;;
23590;SDS011;11973;52.098;7.582;2023-07-28T07:35:13;8.10;;;7.57;;
23590;SDS011;11973;52.098;7.582;2023-07-28T07:37:39;8.85;;;8.02;;
23590;SDS011;11973;52.098;7.582;2023-07-28T07:40:05;8.68;;;7.97;;
23590;SDS011;11973;52.098;7.582;2023-07-28T07:42:42;9.40;;;8.60;;
23590;SDS011;11973;52.098;7.582;2023-07-28T07:45:10;9.10;;;8.30;;
23590;SDS011;11973;52.098;7.582;2023-07-28T07:47:38;9.23;;;8.40;;
23590;SDS011;11973;52.098;7.582;2023-07-28T07:50:05;8.50;;;7.80;;
23590;SDS011;11973;52.098;7.582;2023-07-28T07:52:34;9.73;;;8.85;;
23590;SDS011;11973;52.098;7.582;2023-07-28T07:55:01;9.80;;;8.73;;
23590;SDS011;11973;52.098;7.582;2023-07-28T07:57:27;8.50;;;7.90;;
23590;SDS011;11973;52.098;7.582;2023-07-28T07:59:53;9.23;;;8.43;;
23590;SDS011;11973;52.098;7.582;2023-07-28T08:02:19;8.80;;;8.07;;
23590;SDS011;11973;52.098;7.582;2023-07-28T08:04:44;9.27;;;8.38;;
23590;SDS011;11973;52.098;7.582;2023-07-28T08:07:10;8.57;;;7.78;;
23590;SDS011;11973;52.098;7.582;2023-07-28T08:09:36;8.77;;;8.07;;
23590;SDS011;11973;52.098;7.582;2023-07-28T08:12:02;9.27;;;8.40;;
23590;SDS011;11973;52.098;7.582;2023-07-28T08:14:28;8.95;;;8.25;;
23590;SDS011;11973;52.098;7.582;2023-07-28T08:16:54;8.85;;;8.23;;
23590;SDS011;11973;52.098;7.582;2023-07-28T08:19:20;9.95;;;8.45;;
23590;SDS011;11973;52.098;7.582;2023-07-28T08:21:45;10.55;;;9.25;;
23590;SDS011;11973;52.098;7.582;2023-07-28T08:24:11;11.25;;;10.07;;
23590;SDS011;11973;52.098;7.582;2023-07-28T08:26:37;10.82;;;9.77;;
23590;SDS011;11973;52.098;7.582;2023-07-28T08:29:02;10.77;;;9.68;;
23590;SDS011;11973;52.098;7.582;2023-07-28T08:31:28;10.25;;;9.23;;
23590;SDS011;11973;52.098;7.582;2023-07-28T08:33:54;10.18;;;9.32;;
23590;SDS011;11973;52.098;7.582;2023-07-28T08:36:19;12.32;;;9.93;;
23590;SDS011;11973;52.098;7.582;2023-07-28T08:38:45;11.57;;;9.95;;
23590;SDS011;11973;52.098;7.582;2023-07-28T08:41:12;10.32;;;9.23;;
23590;SDS011;11973;52.098;7.582;2023-07-28T08:43:39;10.77;;;9.80;;
23590;SDS011;11973;52.098;7.582;2023-07-28T08:46:05;11.20;;;10.20;;
23590;SDS011;11973;52.098;7.582;2023-07-28T08:48:31;13.48;;;9.85;;
23590;SDS011;11973;52.098;7.582;2023-07-28T08:50:56;10.52;;;9.63;;
23590;SDS011;11973;52.098;7.582;2023-07-28T08:53:22;11.70;;;10.45;;
23590;SDS011;11973;52.098;7.582;2023-07-28T08:55:48;12.15;;;10.27;;
23590;SDS011;11973;52.098;7.582;2023-07-28T08:58:14;11.75;;;10.60;;
23590;SDS011;11973;52.098;7.582;2023-07-28T09:00:44;13.32;;;10.43;;
23590;SDS011;11973;52.098;7.582;2023-07-28T09:03:16;11.25;;;10.10;;
23590;SDS011;11973;52.098;7.582;2023-07-28T09:05:43;13.40;;;10.15;;
23590;SDS011;11973;52.098;7.582;2023-07-28T09:08:11;10.50;;;9.50;;
23590;SDS011;11973;52.098;7.582;2023-07-28T09:10:44;12.38;;;10.68;;
23590;SDS011;11973;52.098;7.582;2023-07-28T09:13:12;11.27;;;10.18;;
23590;SDS011;11973;52.098;7.582;2023-07-28T09:15:38;12.93;;;10.80;;
23590;SDS011;11973;52.098;7.582;2023-07-28T09:18:07;10.82;;;9.90;;
23590;SDS011;11973;52.098;7.582;2023-07-28T09:20:37;10.57;;;9.70;;
23590;SDS011;11973;52.098;7.582;2023-07-28T09:23:06;10.80;;;9.85;;
23590;SDS011;11973;52.098;7.582;2023-07-28T09:25:33;10.80;;;9.73;;
23590;SDS011;11973;52.098;7.582;2023-07-28T09:28:00;11.38;;;10.38;;
23590;SDS011;11973;52.098;7.582;2023-07-28T09:30:26;10.68;;;9.65;;
23590;SDS011;11973;52.098;7.582;2023-07-28T09:33:07;11.02;;;10.02;;
23590;SDS011;11973;52.098;7.582;2023-07-28T09:35:33;11.40;;;10.25;;
23590;SDS011;11973;52.098;7.582;2023-07-28T09:37:59;11.32;;;10.27;;
23590;SDS011;11973;52.098;7.582;2023-07-28T09:40:25;11.65;;;10.57;;
23590;SDS011;11973;52.098;7.582;2023-07-28T09:42:52;10.63;;;9.70;;
23590;SDS011;11973;52.098;7.582;2023-07-28T09:45:19;10.27;;;9.57;;
23590;SDS011;11973;52.098;7.582;2023-07-28T09:47:47;10.60;;;9.80;;
23590;SDS011;11973;52.098;7.582;2023-07-28T09:50:16;11.38;;;10.38;;
23590;SDS011;11973;52.098;7.582;2023-07-28T09:52:44;10.60;;;9.80;;
23590;SDS011;11973;52.098;7.582;2023-07-28T09:55:12;10.05;;;9.25;;
23590;SDS011;11973;52.098;7.582;2023-07-28T09:57:50;11.15;;;10.18;;
23590;SDS011;11973;52.098;7.582;2023-07-28T10:00:18;11.00;;;10.20;;
23590;SDS011;11973;52.098;7.582;2023-07-28T10:02:45;10.55;;;9.75;;
23590;SDS011;11973;52.098;7.582;2023-07-28T10:05:12;10.80;;;9.98;;
23590;SDS011;11973;52.098;7.582;2023-07-28T10:07:40;10.20;;;9.48;;
23590;SDS011;11973;52.098;7.582;2023-07-28T10:10:09;10.07;;;9.27;;
23590;SDS011;11973;52.098;7.582;2023-07-28T10:12:49;11.55;;;10.65;;
23590;SDS011;11973;52.098;7.582;2023-07-28T10:15:17;10.40;;;9.57;;
23590;SDS011;11973;52.098;7.582;2023-07-28T10:20:34;10.30;;;9.45;;
23590;SDS011;11973;52.098;7.582;2023-07-28T10:23:14;12.13;;;10.93;;
23590;SDS011;11973;52.098;7.582;2023-07-28T10:25:40;11.52;;;10.43;;
23590;SDS011;11973;52.098;7.582;2023-07-28T10:28:28;10.82;;;10.02;;
23590;SDS011;11973;52.098;7.582;2023-07-28T10:30:59;12.85;;;11.00;;
23590;SDS011;11973;52.098;7.582;2023-07-28T10:33:27;12.10;;;10.93;;
23590;SDS011;11973;52.098;7.582;2023-07-28T10:35:54;11.70;;;10.77;;
23590;SDS011;11973;52.098;7.582;2023-07-28T10:41:11;11.55;;;10.07;;
23590;SDS011;11973;52.098;7.582;2023-07-28T10:43:41;11.45;;;10.30;;
23590;SDS011;11973;52.098;7.582;2023-07-28T10:46:09;10.35;;;9.55;;
23590;SDS011;11973;52.098;7.582;2023-07-28T10:48:36;9.80;;;8.98;;
23590;SDS011;11973;52.098;7.582;2023-07-28T10:51:05;10.45;;;9.65;;
23590;SDS011;11973;52.098;7.582;2023-07-28T10:53:31;11.18;;;10.15;;
23590;SDS011;11973;52.098;7.582;2023-07-28T10:55:58;12.63;;;9.60;;
23590;SDS011;11973;52.098;7.582;2023-07-28T10:58:25;10.45;;;9.75;;
23590;SDS011;11973;52.098;7.582;2023-07-28T11:00:50;9.98;;;9.32;;
23590;SDS011;11973;52.098;7.582;2023-07-28T11:03:17;10.23;;;9.40;;
23590;SDS011;11973;52.098;7.582;2023-07-28T11:05:45;10.70;;;9.70;;
23590;SDS011;11973;52.098;7.582;2023-07-28T11:08:13;9.95;;;9.05;;
23590;SDS011;11973;52.098;7.582;2023-07-28T11:10:38;10.13;;;9.25;;
23590;SDS011;11973;52.098;7.582;2023-07-28T11:13:05;10.43;;;9.52;;
23590;SDS011;11973;52.098;7.582;2023-07-28T11:15:31;10.00;;;9.30;;
23590;SDS011;11973;52.098;7.582;2023-07-28T11:17:58;10.40;;;9.65;;
23590;SDS011;11973;52.098;7.582;2023-07-28T11:20:25;9.98;;;9.30;;
23590;SDS011;11973;52.098;7.582;2023-07-28T11:22:54;9.88;;;9.27;;
23590;SDS011;11973;52.098;7.582;2023-07-28T11:25:22;9.07;;;8.40;;
23590;SDS011;11973;52.098;7.582;2023-07-28T11:27:49;10.02;;;9.13;;
23590;SDS011;11973;52.098;7.582;2023-07-28T11:30:16;9.70;;;9.07;;
23590;SDS011;11973;52.098;7.582;2023-07-28T11:32:43;10.10;;;9.55;;
23590;SDS011;11973;52.098;7.582;2023-07-28T11:35:11;9.60;;;9.00;;
23590;SDS011;11973;52.098;7.582;2023-07-28T11:37:39;9.30;;;8.60;;
23590;SDS011;11973;52.098;7.582;2023-07-28T11:40:07;9.85;;;8.85;;
23590;SDS011;11973;52.098;7.582;2023-07-28T11:42:39;9.15;;;8.65;;
23590;SDS011;11973;52.098;7.582;2023-07-28T11:45:08;8.82;;;8.30;;
23590;SDS011;11973;52.098;7.582;2023-07-28T11:47:37;8.90;;;8.35;;
23590;SDS011;11973;52.098;7.582;2023-07-28T11:50:02;9.73;;;9.02;;
23590;SDS011;11973;52.098;7.582;2023-07-28T11:52:32;9.27;;;8.65;;
23590;SDS011;11973;52.098;7.582;2023-07-28T11:55:05;9.73;;;9.18;;
23590;SDS011;11973;52.098;7.582;2023-07-28T11:57:31;9.18;;;8.60;;
23590;SDS011;11973;52.098;7.582;2023-07-28T11:59:58;8.88;;;8.18;;
23590;SDS011;11973;52.098;7.582;2023-07-28T12:02:28;9.40;;;8.68;;
23590;SDS011;11973;52.098;7.582;2023-07-28T12:04:55;9.38;;;8.65;;
23590;SDS011;11973;52.098;7.582;2023-07-28T12:10:04;9.85;;;8.77;;
23590;SDS011;11973;52.098;7.582;2023-07-28T12:12:44;9.68;;;8.88;;
23590;SDS011;11973;52.098;7.582;2023-07-28T12:20:36;8.73;;;8.20;;
23590;SDS011;11973;52.098;7.582;2023-07-28T12:23:04;8.77;;;7.97;;
23590;SDS011;11973;52.098;7.582;2023-07-28T12:25:30;9.45;;;8.75;;
23590;SDS011;11973;52.098;7.582;2023-07-28T12:27:56;8.23;;;7.82;;
23590;SDS011;11973;52.098;7.582;2023-07-28T12:30:22;8.38;;;7.88;;
23590;SDS011;11973;52.098;7.582;2023-07-28T12:32:48;8.55;;;8.05;;
23590;SDS011;11973;52.098;7.582;2023-07-28T12:35:14;7.65;;;7.20;;
23590;SDS011;11973;52.098;7.582;2023-07-28T12:37:40;7.65;;;7.25;;
23590;SDS011;11973;52.098;7.582;2023-07-28T12:40:07;7.13;;;6.72;;
23590;SDS011;11973;52.098;7.582;2023-07-28T12:42:33;7.72;;;7.13;;
23590;SDS011;11973;52.098;7.582;2023-07-28T12:44:59;7.20;;;6.88;;
23590;SDS011;11973;52.098;7.582;2023-07-28T12:47:25;7.68;;;7.20;;
23590;SDS011;11973;52.098;7.582;2023-07-28T12:49:51;7.75;;;7.15;;
23590;SDS011;11973;52.098;7.582;2023-07-28T12:52:16;6.70;;;6.50;;
23590;SDS011;11973;52.098;7.582;2023-07-28T12:54:42;6.65;;;6.35;;
23590;SDS011;11973;52.098;7.582;2023-07-28T12:57:08;6.70;;;6.40;;
23590;SDS011;11973;52.098;7.582;2023-07-28T12:59:37;6.78;;;6.30;;
23590;SDS011;11973;52.098;7.582;2023-07-28T13:02:03;6.25;;;6.05;;
23590;SDS011;11973;52.098;7.582;2023-07-28T13:04:29;6.45;;;6.05;;
23590;SDS011;11973;52.098;7.582;2023-07-28T13:06:54;6.63;;;6.22;;
23590;SDS011;11973;52.098;7.582;2023-07-28T13:09:20;6.75;;;6.55;;
23590;SDS011;11973;52.098;7.582;2023-07-28T13:11:46;6.10;;;5.90;;
23590;SDS011;11973;52.098;7.582;2023-07-28T13:14:12;5.72;;;5.53;;
23590;SDS011;11973;52.098;7.582;2023-07-28T13:16:37;5.63;;;5.53;;
23590;SDS011;11973;52.098;7.582;2023-07-28T13:19:03;5.22;;;5.10;;
23590;SDS011;11973;52.098;7.582;2023-07-28T13:21:30;5.35;;;5.07;;
23590;SDS011;11973;52.098;7.582;2023-07-28T13:23:56;5.82;;;5.50;;
23590;SDS011;11973;52.098;7.582;2023-07-28T13:26:22;5.22;;;5.05;;
23590;SDS011;11973;52.098;7.582;2023-07-28T13:28:48;5.00;;;4.85;;
23590;SDS011;11973;52.098;7.582;2023-07-28T13:31:15;4.55;;;4.30;;
23590;SDS011;11973;52.098;7.582;2023-07-28T13:33:42;4.38;;;4.38;;
23590;SDS011;11973;52.098;7.582;2023-07-28T13:36:08;5.25;;;5.05;;
23590;SDS011;11973;52.098;7.582;2023-07-28T13:38:34;5.07;;;4.97;;
23590;SDS011;11973;52.098;7.582;2023-07-28T13:41:00;5.38;;;5.13;;
23590;SDS011;11973;52.098;7.582;2023-07-28T13:43:28;5.88;;;5.78;;
23590;SDS011;11973;52.098;7.582;2023-07-28T13:45:54;5.70;;;5.60;;
23590;SDS011;11973;52.098;7.582;2023-07-28T13:48:19;5.07;;;4.95;;
23590;SDS011;11973;52.098;7.582;2023-07-28T13:50:45;5.10;;;4.90;;
23590;SDS011;11973;52.098;7.582;2023-07-28T13:53:11;4.75;;;4.65;;
23590;SDS011;11973;52.098;7.582;2023-07-28T13:55:36;4.90;;;4.80;;
23590;SDS011;11973;52.098;7.582;2023-07-28T13:58:03;4.05;;;3.80;;
23590;SDS011;11973;52.098;7.582;2023-07-28T14:00:29;4.22;;;3.90;;
23590;SDS011;11973;52.098;7.582;2023-07-28T14:02:55;3.00;;;3.00;;
23590;SDS011;11973;52.098;7.582;2023-07-28T14:05:20;3.00;;;3.00;;
23590;SDS011;11973;52.098;7.582;2023-07-28T14:07:48;3.03;;;3.00;;
23590;SDS011;11973;52.098;7.582;2023-07-28T14:10:13;3.13;;;3.03;;
23590;SDS011;11973;52.098;7.582;2023-07-28T14:12:39;4.07;;;3.13;;
23590;SDS011;11973;52.098;7.582;2023-07-28T14:15:05;2.05;;;2.05;;
23590;SDS011;11973;52.098;7.582;2023-07-28T14:17:32;1.67;;;1.67;;
23590;SDS011;11973;52.098;7.582;2023-07-28T14:19:58;2.05;;;2.05;;
23590;SDS011;11973;52.098;7.582;2023-07-28T14:22:23;2.45;;;2.30;;
23590;SDS011;11973;52.098;7.582;2023-07-28T14:24:49;2.25;;;2.25;;
23590;SDS011;11973;52.098;7.582;2023-07-28T14:27:15;2.40;;;2.40;;
23590;SDS011;11973;52.098;7.582;2023-07-28T14:29:41;2.28;;;2.17;;
23590;SDS011;11973;52.098;7.582;2023-07-28T14:32:07;2.05;;;1.77;;
23590;SDS011;11973;52.098;7.582;2023-07-28T14:34:33;1.80;;;1.80;;
23590;SDS011;11973;52.098;7.582;2023-07-28T14:37:05;1.60;;;1.60;;
23590;SDS011;11973;52.098;7.582;2023-07-28T14:39:31;1.50;;;1.50;;
23590;SDS011;11973;52.098;7.582;2023-07-28T14:41:57;1.38;;;1.38;;
23590;SDS011;11973;52.098;7.582;2023-07-28T14:44:22;1.52;;;1.52;;
23590;SDS011;11973;52.098;7.582;2023-07-28T14:46:48;1.08;;;1.08;;
23590;SDS011;11973;52.098;7.582;2023-07-28T14:49:14;0.90;;;0.90;;
23590;SDS011;11973;52.098;7.582;2023-07-28T14:51:39;1.33;;;1.25;;
23590;SDS011;11973;52.098;7.582;2023-07-28T14:54:05;0.98;;;0.98;;
23590;SDS011;11973;52.098;7.582;2023-07-28T14:56:31;1.20;;;1.20;;
23590;SDS011;11973;52.098;7.582;2023-07-28T14:58:57;1.13;;;1.13;;
23590;SDS011;11973;52.098;7.582;2023-07-28T15:01:26;1.00;;;1.00;;
23590;SDS011;11973;52.098;7.582;2023-07-28T15:03:52;1.27;;;1.10;;
23590;SDS011;11973;52.098;7.582;2023-07-28T15:06:17;1.23;;;1.02;;
23590;SDS011;11973;52.098;7.582;2023-07-28T15:08:43;1.13;;;1.13;;
23590;SDS011;11973;52.098;7.582;2023-07-28T15:11:09;1.30;;;1.30;;
23590;SDS011;11973;52.098;7.582;2023-07-28T15:13:35;1.20;;;1.20;;
23590;SDS011;11973;52.098;7.582;2023-07-28T15:16:00;2.17;;;1.00;;
23590;SDS011;11973;52.098;7.582;2023-07-28T15:18:26;1.10;;;1.10;;
23590;SDS011;11973;52.098;7.582;2023-07-28T15:20:52;1.40;;;1.00;;
23590;SDS011;11973;52.098;7.582;2023-07-28T15:23:21;1.10;;;1.10;;
23590;SDS011;11973;52.098;7.582;2023-07-28T15:25:47;1.10;;;1.10;;
23590;SDS011;11973;52.098;7.582;2023-07-28T15:28:13;1.35;;;1.25;;
23590;SDS011;11973;52.098;7.582;2023-07-28T15:30:40;1.20;;;1.20;;
23590;SDS011;11973;52.098;7.582;2023-07-28T15:33:07;0.95;;;0.95;;
23590;SDS011;11973;52.098;7.582;2023-07-28T15:35:33;1.00;;;1.00;;
23590;SDS011;11973;52.098;7.582;2023-07-28T15:38:00;1.20;;;1.20;;
23590;SDS011;11973;52.098;7.582;2023-07-28T15:40:26;1.05;;;1.05;;
23590;SDS011;11973;52.098;7.582;2023-07-28T15:42:51;0.95;;;0.95;;
23590;SDS011;11973;52.098;7.582;2023-07-28T15:45:17;1.33;;;1.23;;
23590;SDS011;11973;52.098;7.582;2023-07-28T15:47:43;1.33;;;1.33;;
23590;SDS011;11973;52.098;7.582;2023-07-28T15:50:08;1.30;;;1.20;;
23590;SDS011;11973;52.098;7.582;2023-07-28T15:52:34;1.50;;;1.40;;
23590;SDS011;11973;52.098;7.582;2023-07-28T15:55:00;2.33;;;2.33;;
23590;SDS011;11973;52.098;7.582;2023-07-28T15:57:28;1.70;;;1.70;;
23590;SDS011;11973;52.098;7.582;2023-07-28T15:59:54;1.30;;;1.30;;
23590;SDS011;11973;52.098;7.582;2023-07-28T16:02:20;1.50;;;1.50;;
23590;SDS011;11973;52.098;7.582;2023-07-28T16:04:45;1.60;;;1.60;;
23590;SDS011;11973;52.098;7.582;2023-07-28T16:07:11;1.58;;;1.58;;
23590;SDS011;11973;52.098;7.582;2023-07-28T16:09:37;1.60;;;1.60;;
23590;SDS011;11973;52.098;7.582;2023-07-28T16:12:02;1.48;;;1.48;;
23590;SDS011;11973;52.098;7.582;2023-07-28T16:14:29;1.33;;;1.33;;
23590;SDS011;11973;52.098;7.582;2023-07-28T16:16:55;1.98;;;1.88;;
23590;SDS011;11973;52.098;7.582;2023-07-28T16:19:20;1.88;;;1.77;;
23590;SDS011;11973;52.098;7.582;2023-07-28T16:21:46;2.10;;;2.10;;
23590;SDS011;11973;52.098;7.582;2023-07-28T16:24:12;2.10;;;2.10;;
23590;SDS011;11973;52.098;7.582;2023-07-28T16:26:38;2.30;;;2.30;;
23590;SDS011;11973;52.098;7.582;2023-07-28T16:29:03;2.25;;;2.25;;
23590;SDS011;11973;52.098;7.582;2023-07-28T16:31:29;2.53;;;2.45;;
23590;SDS011;11973;52.098;7.582;2023-07-28T16:33:55;2.15;;;2.15;;
23590;SDS011;11973;52.098;7.582;2023-07-28T16:36:21;2.13;;;2.05;;
23590;SDS011;11973;52.098;7.582;2023-07-28T16:38:46;2.42;;;2.33;;
23590;SDS011;11973;52.098;7.582;2023-07-28T16:41:12;2.03;;;2.03;;
23590;SDS011;11973;52.098;7.582;2023-07-28T16:43:38;2.40;;;2.30;;
23590;SDS011;11973;52.098;7.582;2023-07-28T16:46:04;2.10;;;2.10;;
23590;SDS011;11973;52.098;7.582;2023-07-28T16:48:30;2.42;;;2.42;;
23590;SDS011;11973;52.098;7.582;2023-07-28T16:50:56;2.67;;;2.67;;
23590;SDS011;11973;52.098;7.582;2023-07-28T16:53:21;2.80;;;2.70;;
23590;SDS011;11973;52.098;7.582;2023-07-28T16:55:47;2.67;;;2.58;;
23590;SDS011;11973;52.098;7.582;2023-07-28T16:58:14;2.55;;;2.55;;
23590;SDS011;11973;52.098;7.582;2023-07-28T17:00:41;2.78;;;2.70;;
23590;SDS011;11973;52.098;7.582;2023-07-28T17:03:06;2.88;;;2.78;;
23590;SDS011;11973;52.098;7.582;2023-07-28T17:05:32;2.53;;;2.53;;
23590;SDS011;11973;52.098;7.582;2023-07-28T17:07:58;2.80;;;2.80;;
23590;SDS011;11973;52.098;7.582;2023-07-28T17:10:24;3.17;;;3.08;;
23590;SDS011;11973;52.098;7.582;2023-07-28T17:12:51;7.93;;;4.60;;
23590;SDS011;11973;52.098;7.582;2023-07-28T17:15:17;3.72;;;3.53;;
23590;SDS011;11973;52.098;7.582;2023-07-28T17:17:42;2.95;;;2.95;;
23590;SDS011;11973;52.098;7.582;2023-07-28T17:20:08;2.85;;;2.85;;
23590;SDS011;11973;52.098;7.582;2023-07-28T17:22:35;2.42;;;2.42;;
23590;SDS011;11973;52.098;7.582;2023-07-28T17:25:01;3.10;;;3.00;;
23590;SDS011;11973;52.098;7.582;2023-07-28T17:27:27;2.72;;;2.72;;
23590;SDS011;11973;52.098;7.582;2023-07-28T17:29:53;2.88;;;2.63;;
23590;SDS011;11973;52.098;7.582;2023-07-28T17:32:18;2.60;;;2.60;;
23590;SDS011;11973;52.098;7.582;2023-07-28T17:34:44;2.72;;;2.72;;
23590;SDS011;11973;52.098;7.582;2023-07-28T17:37:10;2.55;;;2.45;;
23590;SDS011;11973;52.098;7.582;2023-07-28T17:39:35;2.45;;;2.45;;
23590;SDS011;11973;52.098;7.582;2023-07-28T17:42:01;3.10;;;2.47;;
23590;SDS011;11973;52.098;7.582;2023-07-28T17:44:27;2.85;;;2.80;;
23590;SDS011;11973;52.098;7.582;2023-07-28T17:46:52;2.53;;;2.53;;
23590;SDS011;11973;52.098;7.582;2023-07-28T17:49:18;2.65;;;2.45;;
23590;SDS011;11973;52.098;7.582;2023-07-28T17:51:44;2.65;;;2.50;;
23590;SDS011;11973;52.098;7.582;2023-07-28T17:54:09;2.40;;;2.40;;
23590;SDS011;11973;52.098;7.582;2023-07-28T17:56:35;1.98;;;1.98;;
23590;SDS011;11973;52.098;7.582;2023-07-28T17:59:01;2.00;;;2.00;;
23590;SDS011;11973;52.098;7.582;2023-07-28T18:01:26;1.92;;;1.92;;
23590;SDS011;11973;52.098;7.582;2023-07-28T18:03:52;1.92;;;1.90;;
23590;SDS011;11973;52.098;7.582;2023-07-28T18:06:19;1.85;;;1.80;;
23590;SDS011;11973;52.098;7.582;2023-07-28T18:08:47;1.88;;;1.88;;
23590;SDS011;11973;52.098;7.582;2023-07-28T18:11:13;1.98;;;1.95;;
23590;SDS011;11973;52.098;7.582;2023-07-28T18:13:39;1.50;;;1.50;;
23590;SDS011;11973;52.098;7.582;2023-07-28T18:16:05;1.67;;;1.52;;
23590;SDS011;11973;52.098;7.582;2023-07-28T18:18:31;2.70;;;1.60;;
23590;SDS011;11973;52.098;7.582;2023-07-28T18:20:57;1.00;;;1.00;;
23590;SDS011;11973;52.098;7.582;2023-07-28T18:23:23;1.20;;;1.10;;
23590;SDS011;11973;52.098;7.582;2023-07-28T18:25:48;0.98;;;0.98;;
23590;SDS011;11973;52.098;7.582;2023-07-28T18:28:14;0.80;;;0.80;;
23590;SDS011;11973;52.098;7.582;2023-07-28T18:30:40;2.03;;;0.80;;
23590;SDS011;11973;52.098;7.582;2023-07-28T18:33:05;1.13;;;0.80;;
23590;SDS011;11973;52.098;7.582;2023-07-28T18:35:33;0.70;;;0.70;;
23590;SDS011;11973;52.098;7.582;2023-07-28T18:37:58;0.80;;;0.80;;
23590;SDS011;11973;52.098;7.582;2023-07-28T18:40:24;1.48;;;0.82;;
23590;SDS011;11973;52.098;7.582;2023-07-28T18:42:50;1.67;;;0.80;;
23590;SDS011;11973;52.098;7.582;2023-07-28T18:45:15;0.70;;;0.70;;
23590;SDS011;11973;52.098;7.582;2023-07-28T18:47:41;0.80;;;0.80;;
23590;SDS011;11973;52.098;7.582;2023-07-28T18:50:07;0.60;;;0.60;;
23590;SDS011;11973;52.098;7.582;2023-07-28T18:52:34;0.70;;;0.70;;
23590;SDS011;11973;52.098;7.582;2023-07-28T18:54:59;0.95;;;0.60;;
23590;SDS011;11973;52.098;7.582;2023-07-28T18:57:25;0.60;;;0.60;;
23590;SDS011;11973;52.098;7.582;2023-07-28T18:59:51;0.60;;;0.60;;
23590;SDS011;11973;52.098;7.582;2023-07-28T19:02:16;3.20;;;0.50;;
23590;SDS011;11973;52.098;7.582;2023-07-28T19:04:42;0.60;;;0.60;;
23590;SDS011;11973;52.098;7.582;2023-07-28T19:07:10;1.85;;;0.63;;
23590;SDS011;11973;52.098;7.582;2023-07-28T19:09:36;1.55;;;0.60;;
23590;SDS011;11973;52.098;7.582;2023-07-28T19:12:02;0.50;;;0.50;;